Time;durP1;ratioP1;P1;durP2;ratioP2;P2;SDS_P1;SDS_P2;PMS_P1;PMS_P2;Temp;Humidity;BMP_temperature;BMP_pressure;BME280_temperature;BME280_humidity;BME280_pressure;Samples;Min_cycle;Max_cycle;Signal;HPM_P1;HPM_P2
2022/06/04 00:00:20;;;;;;;1.90;1.10;;;21.20;72.00;;;;;;4934752;29;20573;-75
2022/06/04 00:02:47;;;;;;;1.70;1.50;;;21.20;72.30;;;;;;4934326;29;20256;-74
2022/06/04 00:05:17;;;;;;;2.27;1.33;;;21.20;72.50;;;;;;4933611;29;20671;-75
2022/06/04 00:07:47;;;;;;;2.13;1.50;;;21.10;73.70;;;;;;4940175;29;20725;-75
2022/06/04 00:15:48;;;;;;;1.80;1.30;;;21.10;73.50;;;;;;4934400;29;20561;-75
2022/06/04 00:18:14;;;;;;;1.90;1.37;;;21.10;74.00;;;;;;4917381;29;20984;-76
2022/06/04 00:20:41;;;;;;;2.90;1.30;;;21.10;74.30;;;;;;4916738;29;20937;-76
2022/06/04 00:23:08;;;;;;;2.90;1.50;;;21.00;74.50;;;;;;4933859;29;20613;-76
2022/06/04 00:25:35;;;;;;;3.13;1.57;;;21.00;74.90;;;;;;4934114;29;20573;-77
2022/06/04 00:28:05;;;;;;;1.60;1.10;;;21.00;75.30;;;;;;4934300;29;20623;-76
2022/06/04 00:30:32;;;;;;;2.03;1.13;;;20.90;75.90;;;;;;4934080;29;20628;-75
2022/06/04 00:32:58;;;;;;;1.87;1.30;;;21.00;76.30;;;;;;4933667;29;20637;-76
2022/06/04 00:35:24;;;;;;;1.40;0.90;;;20.90;76.30;;;;;;4933969;29;20577;-75
2022/06/04 00:37:51;;;;;;;1.83;1.00;;;20.90;76.60;;;;;;4934125;29;20588;-76
2022/06/04 00:40:31;;;;;;;1.70;1.30;;;20.90;76.80;;;;;;4919308;29;20585;-76
2022/06/04 00:42:58;;;;;;;1.80;1.30;;;20.90;77.50;;;;;;4908225;29;20600;-76
2022/06/04 00:45:35;;;;;;;2.60;1.43;;;20.90;77.20;;;;;;4938335;29;20573;-76
2022/06/04 00:48:05;;;;;;;4.30;1.27;;;20.80;77.50;;;;;;4937692;29;20716;-76
2022/06/04 00:50:33;;;;;;;1.57;1.03;;;20.80;78.00;;;;;;4937407;29;20585;-76
2022/06/04 00:53:01;;;;;;;2.27;1.60;;;20.70;78.20;;;;;;4937068;29;20624;-76
2022/06/04 00:55:38;;;;;;;2.70;1.43;;;20.70;78.50;;;;;;4937692;29;20581;-76
2022/06/04 00:58:07;;;;;;;2.30;1.70;;;20.70;79.20;;;;;;4937453;29;20632;-75
2022/06/04 01:00:46;;;;;;;2.93;1.87;;;20.70;79.20;;;;;;4937386;29;20667;-76
2022/06/04 01:03:27;;;;;;;2.07;1.87;;;20.60;80.10;;;;;;4937378;29;20668;-76
2022/06/04 01:06:12;;;;;;;1.97;1.63;;;20.60;80.20;;;;;;4937330;29;20583;-76
2022/06/04 01:08:44;;;;;;;2.37;1.83;;;20.50;80.80;;;;;;4937313;29;20695;-75
2022/06/04 01:11:16;;;;;;;2.03;1.63;;;20.50;81.00;;;;;;4919451;29;21291;-76
2022/06/04 01:13:55;;;;;;;5.00;1.80;;;20.40;81.10;;;;;;4937186;29;20649;-76
2022/06/04 01:16:33;;;;;;;2.23;1.80;;;20.40;81.70;;;;;;4937352;29;20957;-75
2022/06/04 01:19:03;;;;;;;2.23;1.70;;;20.40;81.90;;;;;;4937200;29;20573;-76
2022/06/04 01:21:35;;;;;;;1.80;1.50;;;20.40;82.10;;;;;;4940703;29;20643;-75
2022/06/04 01:24:18;;;;;;;2.83;1.37;;;20.40;82.90;;;;;;4936440;29;20587;-75
2022/06/04 01:27:03;;;;;;;2.17;1.97;;;20.30;83.60;;;;;;4936913;29;20573;-75
2022/06/04 01:30:07;;;;;;;2.17;1.67;;;20.30;84.10;;;;;;4936949;29;20569;-75
2022/06/04 01:32:47;;;;;;;3.33;1.50;;;20.20;84.10;;;;;;4857444;29;21075;-76
2022/06/04 01:35:36;;;;;;;4.43;2.00;;;20.20;84.80;;;;;;4923444;29;20699;-75
2022/06/04 01:38:14;;;;;;;3.40;1.80;;;20.20;85.30;;;;;;4919891;29;20581;-75
2022/06/04 01:41:07;;;;;;;2.20;2.00;;;20.20;85.70;;;;;;4936447;29;20571;-75
2022/06/04 01:43:54;;;;;;;2.60;2.10;;;20.10;86.30;;;;;;4936518;29;20573;-75
2022/06/04 01:46:25;;;;;;;2.53;1.67;;;20.10;86.70;;;;;;4936678;29;20588;-75
2022/06/04 01:48:58;;;;;;;2.27;1.77;;;20.00;86.70;;;;;;4936735;29;20664;-76
2022/06/04 01:51:28;;;;;;;2.43;1.97;;;20.00;87.20;;;;;;4934645;29;21055;-76
2022/06/04 01:54:03;;;;;;;2.30;2.10;;;20.00;87.50;;;;;;4936726;29;20668;-76
2022/06/04 01:56:35;;;;;;;3.60;1.80;;;20.00;88.30;;;;;;4939351;29;20584;-76
2022/06/04 01:59:11;;;;;;;2.33;1.90;;;19.90;88.50;;;;;;4937888;29;20581;-76
2022/06/04 02:01:39;;;;;;;3.20;2.30;;;19.90;88.70;;;;;;4935353;29;20628;-76
2022/06/04 02:04:10;;;;;;;2.20;1.80;;;19.90;89.00;;;;;;4936225;29;20616;-76
2022/06/04 02:07:29;;;;;;;3.27;2.07;;;19.90;89.80;;;;;;4936516;29;20565;-76
2022/06/04 02:09:39;;;;;;;2.40;1.80;;;19.90;90.20;;;;;;4918760;29;20581;-76
2022/06/04 02:12:08;;;;;;;1.80;1.50;;;19.80;90.00;;;;;;4935696;29;20613;-76
2022/06/04 02:14:34;;;;;;;1.90;1.60;;;19.80;90.10;;;;;;4936331;29;21140;-76
2022/06/04 02:17:06;;;;;;;2.93;2.00;;;19.80;90.20;;;;;;4935855;29;20566;-76
2022/06/04 02:19:32;;;;;;;3.17;1.97;;;19.80;90.60;;;;;;4936047;29;20261;-76
2022/06/04 02:21:58;;;;;;;2.60;1.57;;;19.80;90.60;;;;;;4935083;29;20700;-76
2022/06/04 02:24:23;;;;;;;2.77;1.73;;;19.80;90.80;;;;;;4935969;29;20177;-76
2022/06/04 02:26:49;;;;;;;2.90;1.87;;;19.70;91.10;;;;;;4918956;29;20950;-76
2022/06/04 02:29:16;;;;;;;3.60;1.97;;;19.70;91.20;;;;;;4934887;29;20177;-76
2022/06/04 02:32:06;;;;;;;2.10;1.87;;;19.70;91.40;;;;;;4934894;29;21024;-76
2022/06/04 02:35:13;;;;;;;3.50;2.10;;;19.60;91.90;;;;;;4941251;29;20718;-74
2022/06/04 02:37:54;;;;;;;2.47;1.77;;;19.60;92.10;;;;;;4898065;29;20596;-74
2022/06/04 02:40:26;;;;;;;1.97;1.60;;;19.60;92.30;;;;;;4934987;29;20573;-74
2022/06/04 02:42:58;;;;;;;2.23;1.57;;;19.60;92.00;;;;;;4934796;29;20991;-74
2022/06/04 02:45:52;;;;;;;2.80;1.77;;;19.50;92.40;;;;;;4935589;29;20921;-74
2022/06/04 02:48:37;;;;;;;3.03;2.17;;;19.50;92.60;;;;;;4918584;29;20636;-75
2022/06/04 02:51:11;;;;;;;1.60;1.50;;;19.40;92.80;;;;;;4934320;29;20573;-74
2022/06/04 02:53:38;;;;;;;3.63;2.07;;;19.40;92.60;;;;;;4935432;29;20761;-74
2022/06/04 02:56:10;;;;;;;2.80;2.20;;;19.40;92.80;;;;;;4918363;29;20589;-74
2022/06/04 02:58:39;;;;;;;2.10;1.80;;;19.40;93.30;;;;;;4935578;29;20569;-75
2022/06/04 03:01:09;;;;;;;2.03;1.83;;;19.30;93.20;;;;;;4933016;29;20633;-75
2022/06/04 03:03:36;;;;;;;2.37;2.17;;;19.30;93.40;;;;;;4935010;29;20621;-74
2022/06/04 03:06:06;;;;;;;3.97;2.43;;;19.20;93.40;;;;;;4918017;29;20585;-74
2022/06/04 03:08:35;;;;;;;2.77;2.20;;;19.20;93.70;;;;;;4935620;29;20565;-78
2022/06/04 03:11:01;;;;;;;2.60;2.13;;;19.20;93.80;;;;;;4939188;29;20569;-78
2022/06/04 03:13:27;;;;;;;8.00;2.47;;;19.10;93.70;;;;;;4934011;29;20573;-78
2022/06/04 03:15:53;;;;;;;2.63;2.33;;;19.10;93.90;;;;;;4934137;29;21155;-78
2022/06/04 03:18:19;;;;;;;2.50;2.30;;;19.10;94.10;;;;;;4918123;29;20176;-78
2022/06/04 03:20:45;;;;;;;3.27;2.50;;;19.10;94.30;;;;;;4917534;29;20733;-77
2022/06/04 03:23:11;;;;;;;3.63;2.10;;;19.10;94.40;;;;;;4934511;29;20291;-78
2022/06/04 03:25:41;;;;;;;2.40;2.20;;;19.10;94.50;;;;;;4933761;29;20684;-78
2022/06/04 03:28:08;;;;;;;5.27;2.67;;;19.00;94.60;;;;;;4933632;29;20252;-78
2022/06/04 03:30:35;;;;;;;2.20;1.90;;;19.00;94.70;;;;;;4933237;29;20591;-78
2022/06/04 03:33:01;;;;;;;3.50;2.03;;;19.00;94.80;;;;;;4917236;29;20617;-78
2022/06/04 03:35:28;;;;;;;2.47;1.90;;;19.00;94.90;;;;;;4933578;29;21171;-78
2022/06/04 03:37:53;;;;;;;3.00;2.30;;;19.00;95.00;;;;;;4934752;29;21194;-78
2022/06/04 03:40:19;;;;;;;4.40;2.20;;;19.00;95.10;;;;;;4934277;29;20569;-78
2022/06/04 03:42:45;;;;;;;3.00;2.23;;;19.00;95.30;;;;;;4916855;29;20204;-77
2022/06/04 03:45:13;;;;;;;3.20;2.27;;;19.00;95.70;;;;;;4934747;29;20576;-77
2022/06/04 03:47:40;;;;;;;3.20;2.50;;;19.00;95.50;;;;;;4938027;29;20597;-77
2022/06/04 03:50:10;;;;;;;3.17;2.10;;;19.00;95.70;;;;;;4934358;29;21152;-77
2022/06/04 03:52:36;;;;;;;3.23;2.20;;;19.00;95.80;;;;;;4934437;29;20604;-77
2022/06/04 03:55:02;;;;;;;3.27;2.27;;;19.00;95.80;;;;;;4917381;29;20613;-77
2022/06/04 04:00:33;;;;;;;2.50;2.00;;;19.00;96.00;;;;;;4895999;29;20593;-77
2022/06/04 04:03:03;;;;;;;2.87;2.20;;;19.00;96.10;;;;;;4933849;29;20633;-77
2022/06/04 04:05:35;;;;;;;2.50;2.30;;;19.10;96.10;;;;;;4933368;29;20581;-77
2022/06/04 04:08:04;;;;;;;3.00;2.23;;;19.00;96.20;;;;;;4934313;29;20580;-77
2022/06/04 04:10:31;;;;;;;4.00;2.40;;;19.00;96.20;;;;;;4917087;29;20608;-77
2022/06/04 04:12:57;;;;;;;2.50;1.97;;;19.10;96.40;;;;;;4933477;29;20597;-77
2022/06/04 04:15:23;;;;;;;3.47;2.57;;;19.10;96.50;;;;;;4935670;29;20584;-77
2022/06/04 04:17:50;;;;;;;2.80;2.47;;;19.10;96.70;;;;;;4938162;29;20573;-77
2022/06/04 04:20:25;;;;;;;2.17;1.97;;;19.10;96.80;;;;;;4937937;29;20604;-77
2022/06/04 04:22:55;;;;;;;3.90;1.87;;;19.10;96.90;;;;;;4936580;29;20648;-77
2022/06/04 04:25:23;;;;;;;4.77;1.90;;;19.20;96.90;;;;;;4942861;29;20585;-77
2022/06/04 04:27:49;;;;;;;2.33;1.63;;;19.20;96.90;;;;;;4920717;29;20588;-77
2022/06/04 04:30:19;;;;;;;3.93;2.67;;;19.20;97.00;;;;;;4937840;29;21186;-76
2022/06/04 04:32:45;;;;;;;1.93;1.73;;;19.30;97.10;;;;;;4936600;29;20627;-76
2022/06/04 04:35:18;;;;;;;2.33;1.93;;;19.30;97.10;;;;;;4936562;29;20585;-76
2022/06/04 04:37:44;;;;;;;2.07;1.70;;;19.30;97.20;;;;;;4938035;29;20984;-76
2022/06/04 04:40:15;;;;;;;2.60;1.73;;;19.30;97.10;;;;;;4936525;29;20656;-77
2022/06/04 04:42:42;;;;;;;2.20;1.70;;;19.40;97.30;;;;;;4935888;29;20209;-77
2022/06/04 04:45:09;;;;;;;2.83;2.50;;;19.40;97.30;;;;;;4937777;29;20601;-77
2022/06/04 04:47:38;;;;;;;2.23;2.03;;;19.40;97.40;;;;;;4920711;29;20576;-77
2022/06/04 04:50:07;;;;;;;2.63;2.27;;;19.50;97.40;;;;;;4937311;29;20927;-78
2022/06/04 04:52:33;;;;;;;3.03;2.20;;;19.50;97.40;;;;;;4937304;29;20945;-84
2022/06/04 04:54:59;;;;;;;2.80;1.77;;;19.60;97.50;;;;;;4936438;29;20600;-80
2022/06/04 04:57:24;;;;;;;2.53;1.83;;;19.60;97.50;;;;;;4937469;29;20591;-80
2022/06/04 04:59:50;;;;;;;4.00;1.73;;;19.60;97.40;;;;;;4936932;29;20276;-79
2022/06/04 05:02:16;;;;;;;2.73;1.93;;;19.70;97.40;;;;;;4939890;29;20255;-81
2022/06/04 05:04:42;;;;;;;2.63;2.20;;;19.70;97.40;;;;;;4937417;29;20169;-80
2022/06/04 05:07:09;;;;;;;2.83;1.93;;;19.80;97.40;;;;;;4935322;29;20181;-79
2022/06/04 05:09:37;;;;;;;2.93;2.03;;;19.90;97.50;;;;;;4936242;29;20165;-79
2022/06/04 05:12:20;;;;;;;2.20;1.90;;;20.00;97.60;;;;;;4935628;29;20628;-80
2022/06/04 05:14:46;;;;;;;2.40;2.20;;;20.10;97.60;;;;;;4911137;29;20598;-80
2022/06/04 05:17:11;;;;;;;2.30;2.10;;;20.20;97.50;;;;;;4917194;29;20213;-80
2022/06/04 05:19:37;;;;;;;2.07;1.23;;;20.30;97.40;;;;;;4917850;29;20261;-80
2022/06/04 05:22:03;;;;;;;2.10;1.70;;;20.30;97.20;;;;;;4917319;29;20654;-80
2022/06/04 05:24:33;;;;;;;2.23;1.60;;;20.40;97.10;;;;;;4918011;29;20178;-80
2022/06/04 05:27:02;;;;;;;2.50;2.30;;;20.50;97.00;;;;;;4917937;29;20985;-80
2022/06/04 05:29:29;;;;;;;3.10;1.60;;;20.70;96.90;;;;;;4917777;29;20598;-80
2022/06/04 05:31:57;;;;;;;2.93;2.07;;;20.70;96.80;;;;;;4917318;29;20700;-80
2022/06/04 05:34:23;;;;;;;3.17;1.60;;;20.80;96.70;;;;;;4918369;29;20580;-80
2022/06/04 05:36:53;;;;;;;3.27;2.30;;;20.90;96.70;;;;;;4918121;29;20570;-80
2022/06/04 05:39:20;;;;;;;2.30;1.97;;;21.00;96.50;;;;;;4921127;29;20565;-80
2022/06/04 05:41:46;;;;;;;3.77;1.57;;;21.10;96.40;;;;;;4917157;29;20598;-80
2022/06/04 05:44:12;;;;;;;1.90;1.67;;;21.20;96.50;;;;;;4917812;29;20708;-80
2022/06/04 05:46:42;;;;;;;2.47;2.17;;;21.40;96.50;;;;;;4917802;29;20602;-80
2022/06/04 05:49:11;;;;;;;2.33;2.10;;;21.50;96.20;;;;;;4917100;29;21118;-80
2022/06/04 05:51:38;;;;;;;2.77;1.90;;;21.60;96.00;;;;;;4916855;29;20592;-80
2022/06/04 05:54:05;;;;;;;2.10;1.60;;;21.70;96.00;;;;;;4916561;29;20577;-80
2022/06/04 05:56:40;;;;;;;4.30;1.40;;;21.90;95.90;;;;;;4916448;29;20574;-80
2022/06/04 05:59:09;;;;;;;2.13;1.37;;;22.00;95.60;;;;;;4917591;29;20573;-80
2022/06/04 06:01:38;;;;;;;2.83;1.80;;;22.10;95.50;;;;;;4916569;29;20641;-79
2022/06/04 06:04:06;;;;;;;2.60;2.40;;;22.20;95.30;;;;;;4916090;29;20638;-79
2022/06/04 06:06:33;;;;;;;3.37;1.97;;;22.20;94.60;;;;;;4917439;29;20661;-79
2022/06/04 06:09:06;;;;;;;2.37;1.57;;;22.20;94.80;;;;;;4917437;29;20630;-79
2022/06/04 06:11:32;;;;;;;2.97;1.50;;;22.30;94.80;;;;;;4916851;29;20648;-80
2022/06/04 06:13:58;;;;;;;2.40;1.60;;;22.40;94.80;;;;;;4920394;29;21190;-79
2022/06/04 06:16:26;;;;;;;2.13;1.93;;;22.40;94.50;;;;;;4927538;29;20647;-79
2022/06/04 06:18:54;;;;;;;2.10;1.60;;;22.50;94.40;;;;;;4916893;29;20178;-79
2022/06/04 06:21:23;;;;;;;2.20;1.80;;;22.60;94.40;;;;;;4916173;29;20612;-80
2022/06/04 06:23:49;;;;;;;3.40;1.90;;;22.70;94.40;;;;;;4900245;29;21005;-81
2022/06/04 06:26:21;;;;;;;2.23;1.53;;;22.70;94.30;;;;;;4915810;29;20650;-79
2022/06/04 06:28:48;;;;;;;1.87;1.60;;;22.90;94.20;;;;;;4917105;29;20574;-78
2022/06/04 06:31:17;;;;;;;2.43;1.63;;;23.00;94.10;;;;;;4917586;29;20608;-79
2022/06/04 06:33:43;;;;;;;3.50;2.03;;;23.10;94.10;;;;;;4936075;29;20612;-78
2022/06/04 06:36:11;;;;;;;2.63;1.77;;;23.30;93.80;;;;;;4936440;29;20668;-78
2022/06/04 06:38:38;;;;;;;2.00;1.60;;;23.40;93.80;;;;;;4935983;29;20205;-78
2022/06/04 06:41:05;;;;;;;3.53;2.10;;;23.60;93.70;;;;;;4917429;29;20581;-80
2022/06/04 06:43:39;;;;;;;2.30;1.80;;;23.70;93.60;;;;;;4935694;29;20628;-78
2022/06/04 06:46:09;;;;;;;2.83;2.53;;;23.90;93.50;;;;;;4935627;29;20929;-80
2022/06/04 06:48:36;;;;;;;2.47;1.70;;;24.20;93.30;;;;;;4935712;29;20606;-80
2022/06/04 06:51:10;;;;;;;2.60;1.73;;;24.40;93.30;;;;;;4935091;29;20605;-80
2022/06/04 06:53:36;;;;;;;2.50;1.37;;;24.70;93.10;;;;;;4939433;29;21068;-80
2022/06/04 06:56:30;;;;;;;2.37;1.30;;;25.10;93.30;;;;;;4935603;29;20569;-80
2022/06/04 06:58:58;;;;;;;1.90;1.70;;;25.40;92.50;;;;;;4932875;29;20220;-79
2022/06/04 07:01:26;;;;;;;3.50;1.90;;;25.60;92.20;;;;;;4934141;29;20648;-79
2022/06/04 07:03:53;;;;;;;3.90;1.80;;;25.80;91.40;;;;;;4935193;29;20620;-79
2022/06/04 07:06:32;;;;;;;2.60;1.80;;;26.00;90.70;;;;;;4935235;29;20565;-81
2022/06/04 07:08:59;;;;;;;3.00;1.80;;;26.20;90.60;;;;;;4934227;29;20577;-81
2022/06/04 07:11:25;;;;;;;2.43;1.40;;;26.50;90.30;;;;;;4934280;29;20608;-80
2022/06/04 07:13:54;;;;;;;2.87;1.70;;;26.70;90.00;;;;;;4935438;29;20682;-80
2022/06/04 07:16:20;;;;;;;2.00;1.80;;;26.90;88.30;;;;;;4917698;29;20588;-80
2022/06/04 07:18:46;;;;;;;1.77;1.50;;;27.00;85.50;;;;;;4935235;29;20664;-81
2022/06/04 07:21:13;;;;;;;2.40;1.60;;;27.00;85.20;;;;;;4934041;29;21235;-81
2022/06/04 07:23:39;;;;;;;2.30;1.70;;;27.10;85.20;;;;;;4934975;29;20212;-81
2022/06/04 07:26:06;;;;;;;3.00;1.97;;;27.20;84.70;;;;;;4935461;29;20557;-81
2022/06/04 07:28:32;;;;;;;1.90;1.43;;;27.30;82.80;;;;;;4936061;29;20643;-81
2022/06/04 07:30:59;;;;;;;2.73;1.80;;;27.40;83.10;;;;;;4935817;29;20616;-79
2022/06/04 07:33:27;;;;;;;2.93;1.90;;;27.50;83.00;;;;;;4934998;29;20566;-80
2022/06/04 07:35:54;;;;;;;2.40;1.70;;;27.50;83.10;;;;;;4935003;29;21183;-79
2022/06/04 07:38:20;;;;;;;2.20;1.50;;;27.60;81.90;;;;;;4933320;29;20569;-80
2022/06/04 07:40:46;;;;;;;2.03;1.67;;;27.70;82.10;;;;;;4934498;29;20593;-80
2022/06/04 07:43:13;;;;;;;4.10;1.83;;;27.90;81.40;;;;;;4917605;29;20768;-80
2022/06/04 07:45:39;;;;;;;1.87;1.67;;;28.10;81.00;;;;;;4933342;29;20623;-81
2022/06/04 07:48:06;;;;;;;2.93;1.90;;;28.30;80.80;;;;;;4934660;29;20565;-81
2022/06/04 07:50:33;;;;;;;3.50;1.87;;;28.40;79.90;;;;;;4917348;29;20581;-81
2022/06/04 07:53:00;;;;;;;3.40;2.30;;;28.50;79.20;;;;;;4937678;29;20652;-81
2022/06/04 07:55:27;;;;;;;2.10;1.67;;;28.70;78.20;;;;;;4934659;29;20580;-81
2022/06/04 07:57:53;;;;;;;2.57;1.40;;;28.80;78.20;;;;;;4917953;29;20576;-82
2022/06/04 08:00:19;;;;;;;4.57;2.53;;;29.00;78.40;;;;;;4934460;29;21108;-81
2022/06/04 08:02:48;;;;;;;3.40;2.00;;;29.30;77.80;;;;;;4917724;29;20643;-81
2022/06/04 08:05:14;;;;;;;1.80;1.50;;;29.50;77.80;;;;;;4934965;29;20573;-81
2022/06/04 08:07:41;;;;;;;2.73;1.70;;;29.80;77.10;;;;;;4937796;29;20173;-81
2022/06/04 08:10:09;;;;;;;2.23;1.60;;;30.10;75.90;;;;;;4916967;29;20577;-80
2022/06/04 08:12:40;;;;;;;2.33;1.70;;;30.30;74.00;;;;;;4933925;29;20606;-81
2022/06/04 08:15:07;;;;;;;2.67;1.53;;;30.30;72.40;;;;;;4934112;29;21002;-80
2022/06/04 08:17:32;;;;;;;3.17;1.73;;;30.30;71.30;;;;;;4934346;29;20684;-80
2022/06/04 08:19:58;;;;;;;2.33;1.43;;;30.30;70.90;;;;;;4917001;29;20688;-81
2022/06/04 08:22:24;;;;;;;1.90;1.40;;;30.40;71.30;;;;;;4933635;29;20211;-81
2022/06/04 08:24:50;;;;;;;2.13;1.60;;;30.40;70.30;;;;;;4917007;29;20636;-81
2022/06/04 08:27:16;;;;;;;3.60;1.97;;;30.50;70.00;;;;;;4934306;29;20177;-81
2022/06/04 08:29:44;;;;;;;3.77;1.33;;;30.60;69.90;;;;;;4933737;29;20173;-80
2022/06/04 08:32:11;;;;;;;1.80;1.43;;;30.80;69.60;;;;;;4933826;29;20601;-81
2022/06/04 08:34:40;;;;;;;2.57;1.83;;;30.90;68.90;;;;;;4934601;29;20576;-81
2022/06/04 08:37:06;;;;;;;2.40;1.50;;;31.00;67.80;;;;;;4934177;29;21038;-80
2022/06/04 08:39:32;;;;;;;2.90;2.17;;;31.30;67.90;;;;;;4933004;29;20945;-80
2022/06/04 08:42:10;;;;;;;3.00;1.67;;;31.70;69.50;;;;;;4932559;29;20604;-80
2022/06/04 08:44:48;;;;;;;2.20;1.30;;;32.20;66.80;;;;;;4936837;29;20241;-81
2022/06/04 08:47:26;;;;;;;3.00;1.47;;;32.80;66.20;;;;;;4933107;29;20582;-82
2022/06/04 08:49:59;;;;;;;1.93;1.33;;;33.00;64.30;;;;;;4933892;29;20569;-81
2022/06/04 08:52:31;;;;;;;4.63;1.40;;;33.00;63.00;;;;;;4933555;29;20585;-81
2022/06/04 08:57:46;;;;;;;2.53;1.80;;;33.20;61.50;;;;;;4933865;29;20590;-81
2022/06/04 09:00:32;;;;;;;3.63;1.67;;;33.30;59.80;;;;;;4901721;29;20582;-81
2022/06/04 09:03:18;;;;;;;4.17;1.60;;;33.50;59.60;;;;;;4936906;29;20634;-82
2022/06/04 09:05:47;;;;;;;2.10;1.23;;;34.00;61.10;;;;;;4937598;29;20994;-80
2022/06/04 09:08:20;;;;;;;2.20;1.53;;;34.70;60.70;;;;;;4936359;29;20587;-80
2022/06/04 09:10:55;;;;;;;1.70;1.13;;;35.30;59.20;;;;;;4937149;29;20588;-80
2022/06/04 09:13:34;;;;;;;1.77;1.20;;;35.90;58.30;;;;;;4937211;29;20583;-81
2022/06/04 09:16:10;;;;;;;2.00;1.10;;;36.50;57.80;;;;;;4937457;29;21284;-81
2022/06/04 09:18:36;;;;;;;4.03;1.43;;;37.20;56.80;;;;;;4937550;29;20573;-81
2022/06/04 09:21:05;;;;;;;2.20;1.47;;;37.80;55.60;;;;;;4940386;29;20980;-82
2022/06/04 09:23:34;;;;;;;2.03;1.30;;;38.00;53.30;;;;;;4935980;29;20576;-81
2022/06/04 09:26:08;;;;;;;2.00;1.17;;;37.90;52.10;;;;;;4935444;29;20600;-81
2022/06/04 09:28:43;;;;;;;2.87;1.30;;;37.70;50.80;;;;;;4936987;29;20573;-81
2022/06/04 09:31:27;;;;;;;16.20;1.77;;;37.20;50.60;;;;;;4936275;29;20601;-81
2022/06/04 09:33:57;;;;;;;3.40;2.30;;;36.90;50.50;;;;;;4936972;29;20604;-80
2022/06/04 09:36:31;;;;;;;2.67;1.40;;;36.40;49.40;;;;;;4935626;29;20634;-80
2022/06/04 09:39:00;;;;;;;2.00;1.33;;;36.00;49.60;;;;;;4936977;29;20571;-79
2022/06/04 09:41:30;;;;;;;3.00;1.70;;;35.60;49.90;;;;;;4936010;29;21360;-80
2022/06/04 09:44:00;;;;;;;2.77;1.80;;;35.30;49.70;;;;;;4936868;29;20669;-80
2022/06/04 09:46:27;;;;;;;1.80;1.27;;;34.80;49.20;;;;;;4935515;29;20580;-81
2022/06/04 09:48:55;;;;;;;2.37;1.60;;;34.40;49.50;;;;;;4936929;29;20671;-81
2022/06/04 09:51:24;;;;;;;3.10;1.50;;;34.10;49.60;;;;;;4936626;29;20601;-80
2022/06/04 09:54:05;;;;;;;2.40;1.40;;;33.70;49.90;;;;;;4937479;29;20577;-81
2022/06/04 09:56:42;;;;;;;1.90;1.50;;;33.40;50.20;;;;;;4939508;29;20568;-81
2022/06/04 09:59:30;;;;;;;2.63;1.50;;;33.10;50.30;;;;;;4938391;29;20577;-80
2022/06/04 10:02:10;;;;;;;1.70;1.20;;;32.90;51.10;;;;;;4936086;29;20620;-80
2022/06/04 10:04:46;;;;;;;3.20;1.77;;;32.60;51.20;;;;;;4937388;29;20994;-80
2022/06/04 10:07:27;;;;;;;4.20;1.60;;;32.30;51.20;;;;;;4935537;29;20580;-80
2022/06/04 10:09:56;;;;;;;3.93;1.70;;;32.10;51.40;;;;;;4919471;29;20667;-80
2022/06/04 10:15:51;;;;;;;4.37;2.40;;;31.60;52.10;;;;;;4936895;29;20685;-80
2022/06/04 10:18:18;;;;;;;6.17;1.73;;;31.40;52.50;;;;;;4920088;29;20593;-80
2022/06/04 10:20:56;;;;;;;2.00;1.60;;;31.40;53.00;;;;;;4935955;29;20572;-80
2022/06/04 10:23:23;;;;;;;2.20;1.50;;;31.50;53.50;;;;;;4934864;29;20723;-80
2022/06/04 10:25:58;;;;;;;2.07;1.50;;;31.70;54.10;;;;;;4918879;29;20570;-80
2022/06/04 10:28:45;;;;;;;2.50;1.37;;;32.00;54.40;;;;;;4935912;29;21018;-80
2022/06/04 10:31:21;;;;;;;2.13;1.57;;;32.50;54.50;;;;;;4935541;29;20594;-81
2022/06/04 10:34:06;;;;;;;2.40;1.90;;;32.90;54.80;;;;;;4939862;29;20617;-82
2022/06/04 10:37:01;;;;;;;3.40;1.53;;;33.40;54.40;;;;;;4937949;29;20609;-81
2022/06/04 10:39:58;;;;;;;2.17;1.70;;;33.90;54.10;;;;;;4935597;29;21304;-82
2022/06/04 10:42:24;;;;;;;3.80;1.80;;;34.50;53.90;;;;;;4934898;29;20607;-82
2022/06/04 10:45:09;;;;;;;3.60;2.00;;;35.00;54.30;;;;;;4935433;29;20575;-82
2022/06/04 10:47:45;;;;;;;4.13;1.50;;;35.50;53.10;;;;;;4935574;29;20176;-82
2022/06/04 10:50:29;;;;;;;2.90;1.70;;;36.00;52.90;;;;;;4935404;29;21124;-81
2022/06/04 10:53:17;;;;;;;2.73;1.77;;;36.30;52.50;;;;;;4934669;29;20608;-82
2022/06/04 10:55:56;;;;;;;2.20;1.50;;;36.40;51.10;;;;;;4935332;29;20939;-80
2022/06/04 10:58:22;;;;;;;2.70;1.70;;;36.50;50.40;;;;;;4935526;29;20981;-82
2022/06/04 11:00:59;;;;;;;2.07;1.73;;;36.40;49.50;;;;;;4934644;29;20577;-81
2022/06/04 11:03:29;;;;;;;3.27;1.70;;;36.20;49.20;;;;;;4935284;29;20262;-80
2022/06/04 11:06:04;;;;;;;3.80;1.67;;;36.00;50.00;;;;;;4918216;29;20591;-80
2022/06/04 11:08:39;;;;;;;2.00;1.63;;;35.90;49.60;;;;;;4935065;29;20584;-81
2022/06/04 11:11:31;;;;;;;3.67;3.37;;;35.90;50.50;;;;;;4938206;29;20569;-81
2022/06/04 11:14:03;;;;;;;3.83;2.00;;;35.90;48.90;;;;;;4941628;29;20612;-81
2022/06/04 11:16:39;;;;;;;2.50;1.70;;;35.70;49.70;;;;;;4918831;29;20944;-81
2022/06/04 11:19:22;;;;;;;2.40;2.03;;;35.80;50.20;;;;;;4918168;29;20580;-82
2022/06/04 11:21:53;;;;;;;2.50;1.67;;;35.90;50.50;;;;;;4917096;29;21215;-82
2022/06/04 11:24:26;;;;;;;3.30;1.93;;;36.10;50.90;;;;;;4934690;29;20632;-81
2022/06/04 11:27:08;;;;;;;2.60;1.60;;;36.30;50.70;;;;;;4934893;29;20613;-81
2022/06/04 11:29:36;;;;;;;1.73;1.33;;;36.40;50.40;;;;;;4917762;29;20572;-81
2022/06/04 11:32:27;;;;;;;2.87;1.60;;;36.60;50.80;;;;;;4933204;29;20608;-81
2022/06/04 11:35:38;;;;;;;5.90;2.40;;;36.70;50.60;;;;;;4934896;29;20620;-81
2022/06/04 11:38:34;;;;;;;2.20;2.00;;;36.80;49.40;;;;;;4913732;29;20652;-82
2022/06/04 11:41:28;;;;;;;2.67;1.70;;;36.40;48.60;;;;;;4917022;29;20573;-82
2022/06/04 11:44:31;;;;;;;3.87;1.83;;;36.40;48.90;;;;;;4915593;29;20653;-82
2022/06/04 11:47:24;;;;;;;2.10;1.63;;;36.30;48.80;;;;;;4935394;29;20652;-82
2022/06/04 11:50:08;;;;;;;1.93;1.73;;;36.30;49.20;;;;;;4935247;29;20607;-82
2022/06/04 11:52:44;;;;;;;2.20;1.60;;;36.30;49.30;;;;;;4934051;29;20600;-82
2022/06/04 11:55:34;;;;;;;2.20;1.70;;;36.30;49.40;;;;;;4934488;29;20568;-82
2022/06/04 11:58:21;;;;;;;3.67;1.47;;;36.30;50.10;;;;;;4934631;29;20561;-82
2022/06/04 12:00:48;;;;;;;2.63;1.30;;;36.30;49.30;;;;;;4932527;29;20576;-81
2022/06/04 12:03:29;;;;;;;2.47;1.43;;;36.40;49.70;;;;;;4916496;29;20633;-82
2022/06/04 12:06:17;;;;;;;2.00;1.47;;;36.40;49.20;;;;;;4932570;29;20584;-82
2022/06/04 12:08:52;;;;;;;2.83;2.53;;;36.30;48.90;;;;;;4933743;29;20612;-81
2022/06/04 12:11:38;;;;;;;2.73;2.27;;;36.30;48.30;;;;;;4915855;29;20624;-81
2022/06/04 12:14:22;;;;;;;2.27;1.90;;;35.80;47.90;;;;;;4934045;29;20635;-83
2022/06/04 12:17:19;;;;;;;2.07;1.73;;;35.40;48.80;;;;;;4934064;29;20603;-81
2022/06/04 12:25:41;;;;;;;2.63;2.43;;;34.80;49.70;;;;;;4938687;29;20587;-81
2022/06/04 12:28:41;;;;;;;4.20;3.80;;;34.70;49.30;;;;;;4932445;29;20584;-81
2022/06/04 12:31:07;;;;;;;2.17;1.97;;;34.10;49.10;;;;;;4918205;29;20592;-81
2022/06/04 12:33:40;;;;;;;4.00;2.37;;;33.80;49.30;;;;;;4939863;29;20558;-79
2022/06/04 12:36:11;;;;;;;3.30;2.57;;;33.40;49.80;;;;;;4937932;29;20654;-79
2022/06/04 12:38:40;;;;;;;3.90;1.87;;;33.10;50.20;;;;;;4937878;29;21127;-80
2022/06/04 12:41:05;;;;;;;3.03;2.83;;;33.00;50.70;;;;;;4938541;29;20574;-80
2022/06/04 12:43:36;;;;;;;2.50;1.93;;;33.00;50.60;;;;;;4942886;29;21477;-80
2022/06/04 12:46:28;;;;;;;3.50;2.60;;;32.90;50.80;;;;;;4939038;29;20657;-78
2022/06/04 12:49:30;;;;;;;2.77;2.47;;;32.80;50.80;;;;;;4937049;29;20967;-79
2022/06/04 12:52:07;;;;;;;3.70;2.13;;;32.50;50.40;;;;;;4937776;29;20600;-81
2022/06/04 12:54:57;;;;;;;3.90;2.93;;;32.30;51.10;;;;;;4938781;29;20628;-80
2022/06/04 12:57:33;;;;;;;2.33;2.13;;;32.00;51.20;;;;;;4938336;29;20597;-80
2022/06/04 13:00:11;;;;;;;3.27;2.47;;;31.80;51.30;;;;;;4920948;29;20589;-80
2022/06/04 13:02:42;;;;;;;2.97;2.50;;;31.70;52.10;;;;;;4902907;29;1134581;-80
2022/06/04 13:05:22;;;;;;;2.97;2.50;;;31.60;51.90;;;;;;4938264;29;20165;-81
2022/06/04 13:08:07;;;;;;;2.90;2.27;;;31.20;52.00;;;;;;4937929;29;20572;-81
2022/06/04 13:10:32;;;;;;;1.70;1.50;;;31.10;52.60;;;;;;4920545;29;20573;-81
2022/06/04 13:13:20;;;;;;;3.00;2.47;;;31.10;52.90;;;;;;4920341;29;20676;-80
2022/06/04 13:15:54;;;;;;;2.90;2.40;;;31.00;53.50;;;;;;4937414;29;20173;-80
2022/06/04 13:18:27;;;;;;;3.17;2.10;;;30.90;53.70;;;;;;4936262;29;20699;-79
2022/06/04 13:20:57;;;;;;;2.53;2.20;;;30.90;53.90;;;;;;4935259;29;20665;-80
2022/06/04 13:23:36;;;;;;;2.80;2.60;;;30.90;53.90;;;;;;4936113;29;20612;-80
2022/06/04 13:26:20;;;;;;;3.83;2.23;;;31.00;54.70;;;;;;4935970;29;20995;-80
2022/06/04 13:28:49;;;;;;;2.43;2.23;;;30.90;54.80;;;;;;4936899;29;20596;-80
2022/06/04 13:31:29;;;;;;;3.57;2.73;;;31.00;54.40;;;;;;4935018;29;20594;-80
2022/06/04 13:33:58;;;;;;;2.37;2.17;;;30.90;55.00;;;;;;4936088;29;20974;-79